Time;durP1;ratioP1;P1;durP2;ratioP2;P2;SDS_P1;SDS_P2;PMS_P1;PMS_P2;Temp;Humidity;BMP_temperature;BMP_pressure;BME280_temperature;BME280_humidity;BME280_pressure;Samples;Min_cycle;Max_cycle;Signal;HPM_P1;HPM_P2
2023/02/17 00:00:54;;;;;;;4.88;3.30;;;;;;;10.34;49.48;97493.03;5049941;28;20052;-77
2023/02/17 00:03:22;;;;;;;6.18;4.07;;;;;;;10.34;49.64;97501.66;5031558;28;20051;-78
2023/02/17 00:05:50;;;;;;;7.13;3.55;;;;;;;10.34;49.67;97498.22;5031896;28;20083;-78
2023/02/17 00:08:18;;;;;;;5.32;3.60;;;;;;;10.36;49.42;97499.69;5040735;28;20519;-77
2023/02/17 00:10:45;;;;;;;6.68;3.72;;;;;;;10.37;49.33;97495.31;5031907;28;20132;-77
2023/02/17 00:13:13;;;;;;;4.88;3.35;;;;;;;10.39;49.71;97494.19;5033163;28;20057;-77
2023/02/17 00:15:40;;;;;;;5.35;3.47;;;;;;;10.41;49.41;97496.66;5051558;28;20140;-78
2023/02/17 00:18:09;;;;;;;4.20;3.17;;;;;;;10.44;49.69;97501.53;5041786;28;20073;-77
2023/02/17 00:20:37;;;;;;;4.55;3.80;;;;;;;10.45;48.91;97483.13;5012142;28;20073;-77
2023/02/17 00:23:04;;;;;;;11.43;4.18;;;;;;;10.44;49.04;97481.47;5011806;28;20054;-79
2023/02/17 00:25:32;;;;;;;8.15;4.15;;;;;;;10.45;49.03;97477.91;5026815;28;20053;-78
2023/02/17 00:27:59;;;;;;;5.35;3.45;;;;;;;10.49;49.48;97467.94;5031178;28;20060;-78
2023/02/17 00:30:27;;;;;;;5.57;4.18;;;;;;;10.49;49.24;97466.19;5031339;28;20049;-78
2023/02/17 00:32:55;;;;;;;5.15;3.50;;;;;;;10.49;49.32;97468.78;5048774;28;20098;-78
2023/02/17 00:35:23;;;;;;;8.95;4.07;;;;;;;10.49;49.42;97471.41;5051746;28;20053;-78
2023/02/17 00:37:51;;;;;;;6.50;4.38;;;;;;;10.50;48.88;97469.59;5041550;28;20450;-77
2023/02/17 00:40:19;;;;;;;4.38;3.60;;;;;;;10.50;49.47;97472.22;5063232;28;20125;-78
2023/02/17 00:42:47;;;;;;;6.28;4.18;;;;;;;10.53;49.31;97471.88;5068989;28;20109;-77
2023/02/17 00:45:15;;;;;;;6.85;4.03;;;;;;;10.53;48.94;97464.06;5069755;22;20140;-77
2023/02/17 00:47:42;;;;;;;6.55;3.83;;;;;;;10.55;48.92;97471.72;5056317;28;20059;-77
2023/02/17 00:50:10;;;;;;;4.85;3.40;;;;;;;10.55;49.09;97477.75;5055066;28;20055;-77
2023/02/17 00:52:39;;;;;;;5.65;3.80;;;;;;;10.56;49.27;97483.78;5055802;28;20059;-77
2023/02/17 00:55:10;;;;;;;6.03;3.47;;;;;;;10.58;49.27;97489.66;5054965;28;20426;-77
2023/02/17 00:57:37;;;;;;;6.40;4.13;;;;;;;10.57;48.85;97483.63;5055725;28;20053;-77
2023/02/17 01:00:08;;;;;;;8.35;4.80;;;;;;;10.57;48.89;97486.25;5054229;28;20059;-77
2023/02/17 01:02:35;;;;;;;7.10;4.30;;;;;;;10.55;48.80;97485.59;5055366;28;20049;-77
2023/02/17 01:05:03;;;;;;;6.32;4.22;;;;;;;10.54;49.45;97480.50;5055568;28;20055;-77
2023/02/17 01:07:30;;;;;;;7.65;4.15;;;;;;;10.50;49.08;97480.84;5055085;28;20132;-77
2023/02/17 01:09:59;;;;;;;5.30;3.60;;;;;;;10.51;49.62;97479.03;5054086;28;20422;-77
2023/02/17 01:12:27;;;;;;;8.70;4.30;;;;;;;10.49;49.53;97465.34;5054981;28;20144;-77
2023/02/17 01:14:54;;;;;;;8.18;3.97;;;;;;;10.50;49.86;97464.38;5054850;28;20049;-77
2023/02/17 01:17:22;;;;;;;7.07;4.28;;;;;;;10.51;49.31;97466.00;5054867;28;20048;-77
2023/02/17 01:19:49;;;;;;;8.23;4.30;;;;;;;10.53;49.32;97477.09;5054118;28;20049;-77
2023/02/17 01:22:17;;;;;;;7.65;4.65;;;;;;;10.51;49.36;97466.81;5054430;28;20570;-77
2023/02/17 01:24:45;;;;;;;6.22;4.15;;;;;;;10.50;49.30;97459.16;5055080;28;20404;-77
2023/02/17 01:27:14;;;;;;;5.88;4.72;;;;;;;10.47;49.21;97456.88;5054637;28;20426;-77
2023/02/17 01:29:43;;;;;;;8.25;4.50;;;;;;;10.44;49.45;97449.38;5053788;28;20053;-77
2023/02/17 01:32:11;;;;;;;7.50;5.10;;;;;;;10.42;49.55;97452.13;5054664;28;20045;-77
2023/02/17 01:34:38;;;;;;;8.95;4.65;;;;;;;10.40;49.75;97450.66;5054217;28;20058;-77
2023/02/17 01:37:06;;;;;;;7.47;4.80;;;;;;;10.38;49.71;97445.59;5054109;28;20055;-77
2023/02/17 01:39:34;;;;;;;7.30;4.38;;;;;;;10.38;50.24;97442.19;5053842;28;20490;-77
2023/02/17 01:42:01;;;;;;;10.40;4.32;;;;;;;10.40;49.74;97442.84;5054685;28;20067;-77
2023/02/17 01:44:33;;;;;;;5.95;3.85;;;;;;;10.39;50.28;97451.66;5055018;28;20053;-77
2023/02/17 01:47:00;;;;;;;5.00;3.65;;;;;;;10.40;50.11;97448.84;5054027;28;20049;-77
2023/02/17 01:49:32;;;;;;;6.65;3.95;;;;;;;10.41;49.89;97444.47;5053855;28;20048;-77
2023/02/17 01:52:06;;;;;;;5.15;3.60;;;;;;;10.42;50.22;97433.88;5053807;28;20098;-77
2023/02/17 01:54:37;;;;;;;5.80;3.80;;;;;;;10.44;50.00;97433.72;5053403;28;20053;-77
2023/02/17 01:57:05;;;;;;;6.82;3.40;;;;;;;10.44;50.17;97434.53;5054082;28;20518;-78
2023/02/17 01:59:34;;;;;;;5.72;3.42;;;;;;;10.47;49.89;97428.16;5053543;28;20131;-78
2023/02/17 02:02:05;;;;;;;7.30;3.80;;;;;;;10.46;50.10;97431.78;5053960;28;20098;-77
2023/02/17 02:04:36;;;;;;;5.35;3.42;;;;;;;10.45;50.00;97435.34;5053796;28;20045;-77
2023/02/17 02:07:10;;;;;;;4.78;3.28;;;;;;;10.44;50.03;97421.47;5054011;28;20053;-77
2023/02/17 02:09:41;;;;;;;6.43;3.67;;;;;;;10.42;50.35;97420.03;5052708;28;20045;-77
2023/02/17 02:12:20;;;;;;;7.30;3.50;;;;;;;10.40;50.33;97417.56;5058152;28;20099;-79
2023/02/17 02:14:50;;;;;;;4.45;3.55;;;;;;;10.39;50.38;97409.91;5054157;28;20282;-77
2023/02/17 02:17:27;;;;;;;7.63;3.45;;;;;;;10.38;50.48;97405.66;5053492;28;20049;-77
2023/02/17 02:20:15;;;;;;;6.65;2.75;;;;;;;10.39;50.18;97407.31;5053189;28;20076;-77
2023/02/17 02:23:20;;;;;;;3.08;2.53;;;;;;;10.40;50.27;97409.75;5053620;28;20045;-77
2023/02/17 02:26:14;;;;;;;4.43;2.45;;;;;;;10.41;50.16;97403.56;4972412;28;20059;-77
2023/02/17 02:28:59;;;;;;;8.35;3.47;;;;;;;10.42;50.22;97394.75;5040114;28;20053;-77
2023/02/17 02:31:43;;;;;;;5.47;2.75;;;;;;;10.44;50.06;97399.81;5053752;28;20053;-77
2023/02/17 02:34:17;;;;;;;7.32;3.38;;;;;;;10.46;50.22;97395.25;5053090;28;20478;-77
2023/02/17 02:36:48;;;;;;;3.72;2.58;;;;;;;10.49;50.13;97394.91;5053464;28;20131;-77
2023/02/17 02:39:18;;;;;;;4.53;2.72;;;;;;;10.50;49.93;97392.16;5053079;28;20053;-77
2023/02/17 02:41:50;;;;;;;6.05;2.47;;;;;;;10.49;49.99;97390.53;5052713;28;20063;-76
2023/02/17 02:44:20;;;;;;;6.18;3.05;;;;;;;10.51;49.86;97390.34;5053523;28;20045;-77
2023/02/17 02:46:57;;;;;;;5.28;2.60;;;;;;;10.53;49.98;97388.41;5053665;28;20059;-77
2023/02/17 02:49:27;;;;;;;4.13;3.00;;;;;;;10.54;50.47;97378.78;5052780;28;20055;-77
2023/02/17 02:52:03;;;;;;;6.55;2.88;;;;;;;10.54;49.66;97374.41;5053326;28;20059;-77
2023/02/17 02:54:41;;;;;;;4.55;2.90;;;;;;;10.56;50.08;97374.22;5053075;28;20045;-77
2023/02/17 02:57:24;;;;;;;4.68;2.58;;;;;;;10.59;49.84;97379.94;5053091;28;20049;-77
2023/02/17 02:59:57;;;;;;;;;;;;;;;10.62;49.73;97387.41;5052408;28;20045;-77
2023/02/17 03:02:30;;;;;;;4.32;2.47;;;;;;;10.62;49.71;97378.78;5052810;28;19924;-77
2023/02/17 03:05:05;;;;;;;;;;;;;;;10.64;49.70;97382.06;5053422;28;20131;-77
2023/02/17 03:07:37;;;;;;;5.72;2.67;;;;;;;10.63;49.79;97373.41;5052792;28;19921;-77
2023/02/17 03:10:06;;;;;;;6.43;2.30;;;;;;;10.64;49.77;97382.84;5052378;28;20053;-76
2023/02/17 03:12:36;;;;;;;3.58;2.55;;;;;;;10.63;49.76;97381.25;5052783;28;20061;-77
2023/02/17 03:15:12;;;;;;;4.93;2.55;;;;;;;10.66;49.73;97380.91;5053137;28;20041;-77
2023/02/17 03:17:39;;;;;;;6.75;3.40;;;;;;;10.67;50.04;97372.13;5060942;28;20049;-76
2023/02/17 03:20:10;;;;;;;5.82;2.67;;;;;;;10.68;49.67;97381.56;5071583;28;20072;-76
2023/02/17 03:22:41;;;;;;;5.18;2.63;;;;;;;10.68;49.77;97378.13;5062308;28;20074;-77
2023/02/17 03:25:09;;;;;;;8.30;3.17;;;;;;;10.66;49.97;97373.06;5054081;28;20099;-80
2023/02/17 03:27:36;;;;;;;5.93;2.90;;;;;;;10.66;50.11;97382.69;5052424;28;20057;-80
2023/02/17 03:30:06;;;;;;;7.82;3.42;;;;;;;10.66;50.07;97380.09;5051568;28;20053;-77
2023/02/17 03:32:34;;;;;;;4.13;2.70;;;;;;;10.62;50.14;97371.75;5052866;28;20056;-77
2023/02/17 03:35:01;;;;;;;6.95;2.83;;;;;;;10.63;50.27;97370.81;5052603;28;20134;-77
2023/02/17 03:37:31;;;;;;;7.68;2.83;;;;;;;10.66;50.13;97369.66;5052379;28;20045;-77
2023/02/17 03:39:59;;;;;;;4.03;2.70;;;;;;;10.68;50.28;97378.13;5051602;28;20059;-77
2023/02/17 03:42:26;;;;;;;6.78;2.72;;;;;;;10.68;50.17;97371.13;5052185;28;20400;-78
2023/02/17 03:44:54;;;;;;;5.18;2.63;;;;;;;10.68;50.13;97362.47;5052269;28;20045;-77
2023/02/17 03:47:21;;;;;;;11.48;3.50;;;;;;;10.66;50.16;97364.44;5052122;28;20048;-77
2023/02/17 03:49:50;;;;;;;8.05;2.97;;;;;;;10.65;50.12;97360.22;5051692;28;20049;-77
2023/02/17 03:52:17;;;;;;;5.05;2.75;;;;;;;10.63;50.10;97360.38;5052568;28;20056;-77
2023/02/17 03:54:46;;;;;;;11.90;3.35;;;;;;;10.64;50.32;97361.97;5051854;28;20455;-77
2023/02/17 03:57:14;;;;;;;3.92;2.50;;;;;;;10.65;50.25;97361.03;5052400;28;20048;-76
2023/02/17 03:59:41;;;;;;;8.25;3.05;;;;;;;10.66;50.19;97354.81;5055184;28;20072;-77
2023/02/17 04:02:09;;;;;;;4.25;2.53;;;;;;;10.66;50.20;97354.81;5073892;28;20033;-76
2023/02/17 04:04:37;;;;;;;6.32;2.53;;;;;;;10.68;50.46;97352.84;5075304;28;20045;-76
2023/02/17 04:07:05;;;;;;;7.60;3.22;;;;;;;10.69;50.37;97362.34;5059013;28;20051;-77
2023/02/17 04:09:33;;;;;;;5.68;2.80;;;;;;;10.69;50.56;97362.34;5051420;28;20087;-76
2023/02/17 04:12:02;;;;;;;6.15;2.60;;;;;;;10.69;50.66;97362.34;5052518;28;20049;-77
2023/02/17 04:14:29;;;;;;;6.78;2.88;;;;;;;10.70;50.59;97360.53;5052327;28;20045;-77
2023/02/17 04:16:57;;;;;;;4.95;2.83;;;;;;;10.71;50.57;97357.78;5054259;28;20053;-76
2023/02/17 04:19:24;;;;;;;5.22;2.33;;;;;;;10.71;50.92;97357.78;5055038;28;20056;-76
2023/02/17 04:21:52;;;;;;;5.90;3.20;;;;;;;10.71;50.75;97360.38;5056031;28;20078;-78
2023/02/17 04:24:19;;;;;;;4.05;2.45;;;;;;;10.73;50.85;97365.41;5056508;28;20045;-76
2023/02/17 04:26:47;;;;;;;6.97;2.53;;;;;;;10.74;51.03;97361.84;5056067;28;20059;-76
2023/02/17 04:29:16;;;;;;;4.30;2.60;;;;;;;10.74;51.26;97371.47;5055071;28;20404;-76
2023/02/17 04:31:43;;;;;;;5.25;2.65;;;;;;;10.73;51.16;97360.19;5055950;28;20057;-76
2023/02/17 04:34:11;;;;;;;6.47;2.55;;;;;;;10.71;51.23;97367.38;5054881;28;20041;-76
2023/02/17 04:36:39;;;;;;;4.57;2.58;;;;;;;10.71;51.28;97373.41;5055343;28;20059;-76
2023/02/17 04:39:06;;;;;;;7.90;2.55;;;;;;;10.70;51.37;97370.97;5054351;28;20055;-76
2023/02/17 04:41:34;;;;;;;7.20;3.13;;;;;;;10.69;51.47;97369.31;5055818;28;20049;-76
2023/02/17 04:44:01;;;;;;;8.65;2.63;;;;;;;10.68;51.60;97385.97;5055628;28;20392;-76
2023/02/17 04:46:30;;;;;;;8.95;3.05;;;;;;;10.66;51.85;97370.47;5054711;28;20076;-76
2023/02/17 04:48:58;;;;;;;7.70;2.40;;;;;;;10.66;51.87;97373.06;5054653;28;20171;-76
2023/02/17 04:51:25;;;;;;;6.50;3.53;;;;;;;10.66;51.99;97373.06;5055366;28;20123;-75
2023/02/17 04:53:53;;;;;;;3.85;2.70;;;;;;;10.69;52.25;97375.38;5055320;28;20502;-76
2023/02/17 04:56:20;;;;;;;7.30;3.15;;;;;;;10.70;51.83;97374.38;5055571;28;20053;-76
2023/02/17 04:58:48;;;;;;;10.60;3.40;;;;;;;10.70;52.45;97369.16;5054661;28;20088;-76
2023/02/17 05:01:15;;;;;;;4.22;3.08;;;;;;;10.71;52.60;97378.63;5054986;28;20548;-76
2023/02/17 05:03:44;;;;;;;6.00;2.67;;;;;;;10.72;52.59;97382.06;5055779;28;20060;-76
2023/02/17 05:06:12;;;;;;;4.88;2.33;;;;;;;10.70;52.70;97378.78;5055119;28;20056;-76
2023/02/17 05:08:39;;;;;;;5.05;3.13;;;;;;;10.70;52.84;97377.00;5054324;28;20132;-76
2023/02/17 05:11:07;;;;;;;5.30;2.55;;;;;;;10.70;52.89;97370.97;5055155;28;20053;-76
2023/02/17 05:13:35;;;;;;;3.70;2.70;;;;;;;10.71;53.07;97378.63;5054785;28;20055;-76
2023/02/17 05:16:02;;;;;;;5.00;2.55;;;;;;;10.70;53.02;97363.13;5055176;28;20044;-75
2023/02/17 05:18:30;;;;;;;4.72;2.75;;;;;;;10.66;53.11;97360.03;5053212;28;20510;-76
2023/02/17 05:20:59;;;;;;;7.60;3.10;;;;;;;10.65;53.29;97363.63;5055027;28;20438;-76
2023/02/17 05:23:26;;;;;;;8.13;3.45;;;;;;;10.62;53.41;97356.13;5054752;28;20048;-76
2023/02/17 05:25:54;;;;;;;8.00;3.15;;;;;;;10.62;53.63;97360.53;5054763;28;20044;-76
2023/02/17 05:28:21;;;;;;;5.70;3.53;;;;;;;10.60;53.67;97358.06;5054067;28;20076;-76
2023/02/17 05:30:49;;;;;;;4.50;3.10;;;;;;;10.58;53.73;97357.41;5054509;28;20075;-76
2023/02/17 05:33:17;;;;;;;6.45;3.38;;;;;;;10.55;54.14;97352.53;5054991;28;20424;-76
2023/02/17 05:35:45;;;;;;;3.67;2.85;;;;;;;10.56;54.12;97358.56;5054217;28;20052;-76
2023/02/17 05:38:13;;;;;;;4.72;2.85;;;;;;;10.57;54.42;97355.00;5053519;28;20053;-76
2023/02/17 05:40:41;;;;;;;8.23;3.58;;;;;;;10.56;54.40;97355.94;5054643;28;20045;-76
2023/02/17 05:43:08;;;;;;;6.93;3.08;;;;;;;10.58;54.43;97356.59;5054265;28;20055;-76
2023/02/17 05:45:36;;;;;;;7.55;3.08;;;;;;;10.57;54.51;97361.00;5054927;28;20055;-76
2023/02/17 05:48:04;;;;;;;5.93;3.17;;;;;;;10.58;54.70;97364.44;5053687;28;20505;-76
2023/02/17 05:50:31;;;;;;;7.07;3.05;;;;;;;10.58;54.75;97367.84;5054170;28;20137;-76
2023/02/17 05:52:59;;;;;;;6.70;3.13;;;;;;;10.58;54.72;97357.41;5054458;28;20136;-76
2023/02/17 05:55:28;;;;;;;8.07;3.20;;;;;;;10.58;54.92;97367.03;5053862;28;20518;-76
2023/02/17 05:57:55;;;;;;;6.13;3.67;;;;;;;10.55;54.93;97362.97;5053466;28;20135;-76
2023/02/17 06:00:23;;;;;;;4.57;2.83;;;;;;;10.57;55.01;97366.22;5053675;28;20056;-76
2023/02/17 06:02:51;;;;;;;5.00;3.05;;;;;;;10.58;55.14;97373.06;5053938;28;20049;-76
2023/02/17 06:05:18;;;;;;;6.75;3.05;;;;;;;10.59;55.33;97377.31;5054332;28;20064;-76
2023/02/17 06:07:46;;;;;;;4.72;2.80;;;;;;;10.58;55.28;97378.28;5052859;28;20049;-76
2023/02/17 06:10:14;;;;;;;7.65;3.08;;;;;;;10.55;55.36;97378.63;5053600;28;20437;-76
2023/02/17 06:12:43;;;;;;;12.77;3.40;;;;;;;10.54;55.65;97384.84;5053470;28;20128;-76
2023/02/17 06:15:10;;;;;;;4.68;2.70;;;;;;;10.52;55.57;97379.75;5064037;28;20029;-78
2023/02/17 06:17:38;;;;;;;4.18;2.75;;;;;;;10.51;55.89;97387.75;5075626;28;20045;-79
2023/02/17 06:20:08;;;;;;;4.35;3.03;;;;;;;10.47;55.97;97384.66;5065644;28;20067;-78
2023/02/17 06:22:36;;;;;;;5.60;2.88;;;;;;;10.44;56.04;97392.78;5056683;28;20055;-79
2023/02/17 06:25:04;;;;;;;5.07;3.05;;;;;;;10.41;56.26;97392.31;5054753;28;20056;-79
2023/02/17 06:27:32;;;;;;;4.32;2.92;;;;;;;10.41;56.35;97385.31;5034808;28;20128;-79
2023/02/17 06:30:01;;;;;;;5.88;3.33;;;;;;;10.42;56.32;97389.53;5040055;28;20060;-79
2023/02/17 06:32:28;;;;;;;4.57;2.67;;;;;;;10.43;56.44;97391.19;5057719;28;20049;-80
2023/02/17 06:34:57;;;;;;;5.40;3.25;;;;;;;10.41;56.67;97395.75;5065764;28;20041;-81
2023/02/17 06:37:25;;;;;;;12.25;5.25;;;;;;;10.41;56.79;97400.16;5077748;28;20057;-81
2023/02/17 06:39:53;;;;;;;31.27;18.05;;;;;;;10.43;57.06;97400.78;5063479;28;20063;-82
2023/02/17 06:42:21;;;;;;;8.52;5.25;;;;;;;10.44;57.04;97392.78;5063473;28;20068;-80
2023/02/17 06:44:49;;;;;;;5.80;3.45;;;;;;;10.44;57.38;97397.19;5066227;28;20076;-82
2023/02/17 06:47:20;;;;;;;6.40;2.70;;;;;;;10.44;57.90;97394.59;5066324;28;20083;-82
2023/02/17 06:49:56;;;;;;;6.40;3.25;;;;;;;10.44;57.78;97403.22;5072329;28;20095;-81
2023/02/17 06:52:25;;;;;;;9.82;2.95;;;;;;;10.42;57.87;97386.09;5080606;23;20079;-82
2023/02/17 06:54:53;;;;;;;6.50;3.08;;;;;;;10.42;57.65;97399.97;5039368;28;20080;-79
2023/02/17 06:57:20;;;;;;;4.95;2.65;;;;;;;10.39;57.71;97389.06;5040449;28;20056;-83
2023/02/17 06:59:48;;;;;;;5.57;2.88;;;;;;;10.38;57.87;97396.03;5044124;28;20051;-82
2023/02/17 07:02:16;;;;;;;4.75;2.60;;;;;;;10.38;57.73;97398.66;5041180;28;20081;-85
2023/02/17 07:04:45;;;;;;;5.63;2.60;;;;;;;10.40;57.61;97408.94;5032635;28;20069;-83
2023/02/17 07:07:12;;;;;;;40.08;20.73;;;;;;;10.40;57.54;97398.50;5028078;28;20109;-84
2023/02/17 07:09:40;;;;;;;47.65;27.60;;;;;;;10.39;57.79;97407.31;5039479;28;20109;-87
2023/02/17 07:12:08;;;;;;;10.75;6.43;;;;;;;10.39;57.63;97420.34;5033537;28;20454;-83
2023/02/17 07:14:36;;;;;;;6.55;3.60;;;;;;;10.37;57.95;97412.69;5033430;28;20096;-84
2023/02/17 07:17:04;;;;;;;6.03;2.70;;;;;;;10.36;57.73;97413.63;5038317;28;20045;-83
2023/02/17 07:19:32;;;;;;;4.72;2.63;;;;;;;10.37;57.80;97406.66;5042759;28;20065;-82
2023/02/17 07:22:02;;;;;;;4.30;2.30;;;;;;;10.37;58.36;97409.25;5025666;28;20109;-84
2023/02/17 07:24:30;;;;;;;5.72;2.53;;;;;;;10.37;58.29;97420.50;5027047;28;20543;-84
2023/02/17 07:26:59;;;;;;;5.05;2.45;;;;;;;10.39;58.36;97415.94;5033330;28;20076;-83
2023/02/17 07:29:27;;;;;;;6.45;2.45;;;;;;;10.39;58.45;97415.94;5039775;28;20049;-85
2023/02/17 07:31:56;;;;;;;4.20;2.70;;;;;;;10.39;58.55;97413.34;5042165;28;20053;-84
2023/02/17 07:34:24;;;;;;;5.70;2.55;;;;;;;10.43;58.39;97412.03;5042028;28;20053;-80
2023/02/17 07:36:52;;;;;;;5.95;3.13;;;;;;;10.47;58.31;97407.31;5043321;28;20536;-79
2023/02/17 07:39:21;;;;;;;15.25;10.23;;;;;;;10.46;58.37;97403.88;5043702;28;20050;-79
2023/02/17 07:41:48;;;;;;;17.23;8.65;;;;;;;10.49;58.43;97410.56;5043605;28;20060;-79
2023/02/17 07:44:16;;;;;;;7.38;3.67;;;;;;;10.51;58.23;97411.22;5044000;28;20061;-80
2023/02/17 07:46:43;;;;;;;8.02;3.70;;;;;;;10.54;57.87;97413.53;5038842;28;20046;-83
2023/02/17 07:49:12;;;;;;;4.00;2.20;;;;;;;10.52;57.96;97405.84;5040609;28;20109;-80
2023/02/17 07:51:40;;;;;;;6.88;2.33;;;;;;;10.52;58.06;97408.47;5033540;28;20060;-82
2023/02/17 07:54:07;;;;;;;2.92;2.42;;;;;;;10.54;58.39;97410.06;5030715;28;20547;-84
2023/02/17 07:56:36;;;;;;;6.65;2.72;;;;;;;10.55;57.55;97412.53;5048195;28;20045;-82
2023/02/17 07:59:07;;;;;;;4.75;2.53;;;;;;;10.55;57.80;97407.31;5032212;28;20060;-85
2023/02/17 08:01:35;;;;;;;4.13;2.40;;;;;;;10.55;57.79;97415.16;5036016;28;20060;-84
2023/02/17 08:04:03;;;;;;;4.72;2.90;;;;;;;10.55;57.66;97424.78;5046738;28;20056;-79
2023/02/17 08:06:31;;;;;;;7.28;3.75;;;;;;;10.52;57.83;97433.75;5045700;28;20073;-81
2023/02/17 08:14:37;;;;;;;4.28;2.72;;;;;;;10.47;57.68;97433.38;5043798;28;20595;-79
2023/02/17 08:17:05;;;;;;;6.53;2.25;;;;;;;10.46;57.68;97431.78;5040727;28;20097;-79
2023/02/17 08:19:33;;;;;;;5.30;2.30;;;;;;;10.47;57.43;97423.78;5026261;28;20041;-80
2023/02/17 08:22:14;;;;;;;4.80;2.15;;;;;;;10.49;57.60;97431.44;5040655;28;20053;-82
2023/02/17 08:24:44;;;;;;;4.55;2.72;;;;;;;10.52;57.62;97441.56;5032843;28;20056;-81
2023/02/17 08:27:14;;;;;;;9.63;5.40;;;;;;;10.53;57.39;97437.97;5038671;28;20111;-80
2023/02/17 08:29:42;;;;;;;18.58;10.95;;;;;;;10.54;57.26;97438.78;5032861;28;20111;-80
2023/02/17 08:32:11;;;;;;;8.02;3.65;;;;;;;10.53;57.31;97437.97;5026244;28;20476;-80
2023/02/17 08:34:38;;;;;;;3.47;2.35;;;;;;;10.53;56.87;97437.97;5041214;28;20049;-86
2023/02/17 08:37:07;;;;;;;3.10;1.92;;;;;;;10.51;57.00;97440.72;5035809;28;20124;-80
2023/02/17 08:39:36;;;;;;;7.05;2.78;;;;;;;10.52;57.23;97436.34;5034343;28;20057;-80
2023/02/17 08:42:04;;;;;;;13.48;5.72;;;;;;;10.55;56.92;97441.22;5040312;28;20140;-79
2023/02/17 08:44:36;;;;;;;5.25;3.20;;;;;;;10.59;57.23;97447.75;5027177;28;20077;-81
2023/02/17 08:47:04;;;;;;;4.63;3.13;;;;;;;10.63;57.35;97440.44;5040800;28;20068;-79
2023/02/17 08:49:32;;;;;;;4.88;2.20;;;;;;;10.65;57.15;97451.53;5026348;28;20410;-79
2023/02/17 08:52:34;;;;;;;3.33;2.20;;;;;;;10.67;57.07;97444.34;5041180;28;20418;-80
2023/02/17 08:55:03;;;;;;;5.65;2.78;;;;;;;10.68;57.14;97446.78;5046782;28;20057;-86
2023/02/17 08:57:31;;;;;;;5.57;2.58;;;;;;;10.69;57.26;97442.38;5051567;28;20105;-86
2023/02/17 09:00:00;;;;;;;4.53;2.03;;;;;;;10.71;57.29;97449.09;5039961;28;20050;-87
2023/02/17 09:02:28;;;;;;;5.40;2.00;;;;;;;10.74;57.29;97444.53;5044650;28;20549;-83
2023/02/17 09:04:56;;;;;;;5.15;2.38;;;;;;;10.76;57.37;97447.78;5040753;28;20076;-81
2023/02/17 09:07:24;;;;;;;19.08;12.43;;;;;;;10.78;57.31;97445.81;5040723;28;20057;-81
2023/02/17 09:09:53;;;;;;;40.38;24.08;;;;;;;10.79;57.49;97447.47;5039154;28;20049;-82
2023/02/17 09:12:27;;;;;;;7.90;4.60;;;;;;;10.79;57.84;97448.28;5043944;28;20061;-81
2023/02/17 09:14:55;;;;;;;8.65;4.60;;;;;;;10.83;57.94;97444.38;5043143;28;20121;-84
2023/02/17 09:17:25;;;;;;;3.97;2.47;;;;;;;10.85;57.95;97457.25;5041758;28;20049;-81
2023/02/17 09:19:53;;;;;;;7.45;2.90;;;;;;;10.85;57.89;97462.47;5041109;28;20077;-80
2023/02/17 09:22:21;;;;;;;5.53;2.47;;;;;;;10.84;58.21;97458.22;5032042;28;20067;-83
2023/02/17 09:24:58;;;;;;;23.48;7.32;;;;;;;10.85;58.38;97470.31;5026379;28;20072;-80
2023/02/17 09:27:26;;;;;;;10.23;3.40;;;;;;;10.87;58.23;97476.19;5045793;28;20079;-82
2023/02/17 09:29:54;;;;;;;3.90;2.45;;;;;;;10.86;58.35;97469.31;5043034;28;20050;-83
2023/02/17 09:32:22;;;;;;;3.00;1.88;;;;;;;10.84;58.25;97459.03;5044512;28;20049;-81
2023/02/17 09:34:51;;;;;;;3.80;2.13;;;;;;;10.84;58.63;97461.66;5042838;28;20054;-79
2023/02/17 09:37:20;;;;;;;2.20;1.90;;;;;;;10.86;58.35;97464.09;5041925;28;20046;-79
2023/02/17 09:39:48;;;;;;;5.85;2.00;;;;;;;10.88;58.49;97462.94;5040878;28;20053;-79
2023/02/17 09:42:19;;;;;;;4.13;1.98;;;;;;;10.92;58.61;97468.69;5043565;28;20135;-80
2023/02/17 09:44:50;;;;;;;6.28;2.63;;;;;;;10.96;58.54;97466.56;5041673;28;20107;-83
2023/02/17 09:47:23;;;;;;;4.53;2.40;;;;;;;10.97;58.61;97461.16;5040911;28;20061;-80
2023/02/17 09:49:56;;;;;;;3.38;2.08;;;;;;;10.98;58.76;97462.81;5041213;28;20049;-81
2023/02/17 09:52:28;;;;;;;4.82;2.10;;;;;;;11.01;58.63;97456.44;5061553;28;20331;-82
2023/02/17 09:55:03;;;;;;;3.13;2.22;;;;;;;11.00;58.98;97460.00;5060240;28;20054;-86
2023/02/17 09:57:36;;;;;;;3.67;2.13;;;;;;;11.01;59.06;97466.88;5050933;28;20518;-86
2023/02/17 10:00:10;;;;;;;5.53;2.15;;;;;;;11.02;59.23;97458.06;5049316;28;20048;-83
2023/02/17 10:02:44;;;;;;;4.55;2.10;;;;;;;11.04;59.24;97450.88;5048825;28;20492;-86
2023/02/17 10:05:16;;;;;;;4.78;2.20;;;;;;;11.03;59.30;97457.91;5049900;28;20061;-83
2023/02/17 10:07:46;;;;;;;;;;;;;;;11.05;59.49;97449.91;5049797;28;20046;-89
2023/02/17 10:10:18;;;;;;;3.92;2.20;;;;;;;11.05;59.22;97469.00;5048815;28;19936;-85
2023/02/17 10:12:53;;;;;;;4.88;2.33;;;;;;;11.06;59.60;97469.81;5047847;28;20096;-82
2023/02/17 10:15:25;;;;;;;2.92;2.35;;;;;;;11.08;59.69;97460.84;5052058;28;20056;-85
2023/02/17 10:17:58;;;;;;;8.07;2.53;;;;;;;11.11;60.06;97465.75;5051441;28;20045;-86
2023/02/17 10:20:33;;;;;;;3.78;1.65;;;;;;;11.13;60.30;97466.41;5036608;28;20050;-84
2023/02/17 10:23:07;;;;;;;4.63;2.00;;;;;;;11.16;60.58;97469.66;5026957;28;20111;-85
2023/02/17 10:25:49;;;;;;;2.90;1.77;;;;;;;11.18;60.65;97452.84;5041439;28;20053;-86
2023/02/17 10:28:25;;;;;;;5.28;2.40;;;;;;;11.19;60.78;97449.25;5039374;28;20048;-87
2023/02/17 10:31:01;;;;;;;2.60;1.90;;;;;;;11.20;60.95;97450.09;5038155;28;20072;-85
2023/02/17 10:33:35;;;;;;;3.10;2.05;;;;;;;11.24;61.52;97456.56;5042196;28;20054;-85
2023/02/17 10:36:12;;;;;;;8.00;2.35;;;;;;;11.28;61.73;97450.06;5031762;28;20060;-81
2023/02/17 10:38:54;;;;;;;3.17;1.80;;;;;;;11.30;61.76;97448.09;5041498;28;20045;-81
2023/02/17 10:41:26;;;;;;;5.15;1.83;;;;;;;11.33;61.65;97448.59;5029896;28;20061;-81
2023/02/17 10:43:55;;;;;;;4.55;1.83;;;;;;;11.38;61.62;97448.09;5041023;28;20136;-82
2023/02/17 10:46:29;;;;;;;4.05;2.13;;;;;;;11.50;62.21;97441.53;5041487;28;20069;-83
2023/02/17 10:48:59;;;;;;;2.75;1.80;;;;;;;11.71;61.74;97442.78;5037236;28;20053;-81
2023/02/17 10:51:30;;;;;;;4.68;2.20;;;;;;;11.94;61.15;97446.34;5027698;28;20053;-79
2023/02/17 10:54:02;;;;;;;5.85;1.67;;;;;;;12.12;60.66;97434.81;5035911;28;20108;-80
2023/02/17 10:56:38;;;;;;;3.90;1.70;;;;;;;12.20;60.44;97447.03;5034800;28;20057;-85
2023/02/17 10:59:11;;;;;;;3.33;1.60;;;;;;;12.28;59.99;97436.53;5032710;28;20104;-83
2023/02/17 11:01:41;;;;;;;3.28;1.60;;;;;;;12.35;60.17;97450.56;5043712;28;20546;-84
2023/02/17 11:04:11;;;;;;;3.47;1.60;;;;;;;12.36;59.92;97447.78;5027388;28;20836;-85
2023/02/17 11:06:48;;;;;;;2.80;1.25;;;;;;;12.36;60.13;97460.84;5046508;28;20100;-84
2023/02/17 11:09:20;;;;;;;2.80;1.60;;;;;;;12.36;60.16;97437.31;5046396;28;20049;-87
2023/02/17 11:11:57;;;;;;;2.22;1.60;;;;;;;12.41;60.16;97449.88;5048782;28;20141;-83
2023/02/17 11:14:28;;;;;;;3.72;1.55;;;;;;;12.43;60.07;97452.31;5042291;28;20045;-84
2023/02/17 11:16:59;;;;;;;5.13;1.48;;;;;;;12.45;60.22;97439.88;5047088;28;20072;-82
2023/02/17 11:19:29;;;;;;;5.60;1.27;;;;;;;12.43;60.22;97426.97;5047147;28;20727;-79
2023/02/17 11:22:00;;;;;;;1.90;1.25;;;;;;;12.46;60.16;97425.81;5041772;28;20124;-81
2023/02/17 11:24:30;;;;;;;5.28;2.05;;;;;;;12.48;60.37;97423.81;5026900;28;20065;-80
2023/02/17 11:27:00;;;;;;;5.03;1.83;;;;;;;12.54;60.47;97431.00;5039003;28;20494;-80
2023/02/17 11:29:29;;;;;;;2.33;1.23;;;;;;;12.58;60.35;97440.94;5035484;28;20133;-85
2023/02/17 11:31:59;;;;;;;1.20;1.10;;;;;;;12.63;60.05;97436.97;5035649;28;20049;-82
2023/02/17 11:34:29;;;;;;;1.58;1.10;;;;;;;12.64;59.86;97434.19;5043885;28;20045;-81
2023/02/17 11:37:00;;;;;;;1.48;1.17;;;;;;;12.62;59.92;97424.91;5042651;28;20053;-82
2023/02/17 11:39:28;;;;;;;2.15;1.40;;;;;;;12.61;60.06;97424.06;5040088;28;20069;-82
2023/02/17 11:41:56;;;;;;;1.83;1.50;;;;;;;12.60;60.26;97417.22;5040362;28;20061;-79
2023/02/17 11:44:26;;;;;;;2.17;1.60;;;;;;;12.63;60.17;97409.00;5047489;28;20072;-81
2023/02/17 11:47:13;;;;;;;4.57;1.50;;;;;;;12.65;59.97;97409.66;5039413;28;20143;-80
2023/02/17 11:50:16;;;;;;;2.95;1.27;;;;;;;12.63;59.99;97414.22;5043676;28;20054;-80
2023/02/17 11:53:08;;;;;;;2.05;1.40;;;;;;;12.62;59.98;97410.00;5024950;28;20046;-81